sensor_id;sensor_type;location;lat;lon;timestamp;pressure;altitude;pressure_sealevel;temperature;humidity
74075;BME280;62428;51.412;5.432;2022-11-14T00:02:18;101389.66;;;5.13;85.07
74075;BME280;62428;51.412;5.432;2022-11-14T00:04:47;101387.31;;;5.17;84.99
74075;BME280;62428;51.412;5.432;2022-11-14T00:07:13;101384.97;;;5.20;84.98
74075;BME280;62428;51.412;5.432;2022-11-14T00:09:38;101386.25;;;5.18;84.89
74075;BME280;62428;51.412;5.432;2022-11-14T00:12:10;101381.47;;;5.20;84.68
74075;BME280;62428;51.412;5.432;2022-11-14T00:14:36;101383.34;;;5.19;85.05
74075;BME280;62428;51.412;5.432;2022-11-14T00:17:02;101377.22;;;5.19;84.88
74075;BME280;62428;51.412;5.432;2022-11-14T00:19:28;101382.06;;;5.22;84.81
74075;BME280;62428;51.412;5.432;2022-11-14T00:21:53;101373.25;;;5.22;84.81
74075;BME280;62428;51.412;5.432;2022-11-14T00:24:19;101367.13;;;5.21;85.19
74075;BME280;62428;51.412;5.432;2022-11-14T00:26:45;101367.91;;;5.22;85.03
74075;BME280;62428;51.412;5.432;2022-11-14T00:29:11;101375.34;;;5.19;85.05
74075;BME280;62428;51.412;5.432;2022-11-14T00:31:37;101359.59;;;5.18;85.02
74075;BME280;62428;51.412;5.432;2022-11-14T00:34:03;101366.00;;;5.17;85.42
74075;BME280;62428;51.412;5.432;2022-11-14T00:36:29;101355.34;;;5.17;85.47
74075;BME280;62428;51.412;5.432;2022-11-14T00:38:54;101346.78;;;5.15;84.91
74075;BME280;62428;51.412;5.432;2022-11-14T00:41:20;101351.28;;;5.14;84.87
74075;BME280;62428;51.412;5.432;2022-11-14T00:43:46;101356.63;;;5.14;84.95
74075;BME280;62428;51.412;5.432;2022-11-14T00:46:11;101364.13;;;5.17;85.03
74075;BME280;62428;51.412;5.432;2022-11-14T00:48:37;101361.00;;;5.20;84.95
74075;BME280;62428;51.412;5.432;2022-11-14T00:51:02;101360.50;;;5.24;84.39
74075;BME280;62428;51.412;5.432;2022-11-14T00:53:27;101356.00;;;5.24;83.71
74075;BME280;62428;51.412;5.432;2022-11-14T00:55:53;101345.81;;;5.21;84.00
74075;BME280;62428;51.412;5.432;2022-11-14T00:58:18;101343.63;;;5.18;83.69
74075;BME280;62428;51.412;5.432;2022-11-14T01:00:43;101345.72;;;5.16;83.65
74075;BME280;62428;51.412;5.432;2022-11-14T01:03:08;101352.34;;;5.13;83.80
74075;BME280;62428;51.412;5.432;2022-11-14T01:05:42;101347.25;;;5.12;83.41
74075;BME280;62428;51.412;5.432;2022-11-14T01:08:07;101343.47;;;5.08;82.31
74075;BME280;62428;51.412;5.432;2022-11-14T01:10:33;101345.16;;;4.97;82.71
74075;BME280;62428;51.412;5.432;2022-11-14T01:12:58;101341.28;;;4.88;82.20
74075;BME280;62428;51.412;5.432;2022-11-14T01:15:23;101339.81;;;4.80;82.65
74075;BME280;62428;51.412;5.432;2022-11-14T01:17:49;101337.06;;;4.75;82.84
74075;BME280;62428;51.412;5.432;2022-11-14T01:20:15;101328.66;;;4.66;83.15
74075;BME280;62428;51.412;5.432;2022-11-14T01:22:40;101324.88;;;4.62;83.40
74075;BME280;62428;51.412;5.432;2022-11-14T01:25:06;101323.25;;;4.61;83.13
74075;BME280;62428;51.412;5.432;2022-11-14T01:27:32;101331.47;;;4.59;83.45
74075;BME280;62428;51.412;5.432;2022-11-14T01:29:57;101317.59;;;4.57;83.01
74075;BME280;62428;51.412;5.432;2022-11-14T01:32:22;101315.41;;;4.54;82.77
74075;BME280;62428;51.412;5.432;2022-11-14T01:34:48;101312.41;;;4.51;83.13
74075;BME280;62428;51.412;5.432;2022-11-14T01:37:13;101310.25;;;4.48;83.05
74075;BME280;62428;51.412;5.432;2022-11-14T01:39:38;101310.25;;;4.48;83.08
74075;BME280;62428;51.412;5.432;2022-11-14T01:42:04;101308.84;;;4.45;82.99
74075;BME280;62428;51.412;5.432;2022-11-14T01:44:48;101310.38;;;4.41;82.85
74075;BME280;62428;51.412;5.432;2022-11-14T01:47:26;101305.53;;;4.38;83.29
74075;BME280;62428;51.412;5.432;2022-11-14T01:49:56;101297.50;;;4.33;82.34
74075;BME280;62428;51.412;5.432;2022-11-14T01:52:34;101297.28;;;4.22;82.50
74075;BME280;62428;51.412;5.432;2022-11-14T01:55:04;101302.50;;;4.17;83.13
74075;BME280;62428;51.412;5.432;2022-11-14T01:57:44;101296.50;;;4.10;83.02
74075;BME280;62428;51.412;5.432;2022-11-14T02:00:11;101302.78;;;4.04;83.40
74075;BME280;62428;51.412;5.432;2022-11-14T02:02:37;101300.38;;;4.02;83.36
74075;BME280;62428;51.412;5.432;2022-11-14T02:05:06;101300.59;;;4.01;83.04
74075;BME280;62428;51.412;5.432;2022-11-14T02:07:35;101300.81;;;3.99;83.21
74075;BME280;62428;51.412;5.432;2022-11-14T02:10:05;101297.38;;;3.99;82.72
74075;BME280;62428;51.412;5.432;2022-11-14T02:12:31;101293.09;;;3.98;82.97
74075;BME280;62428;51.412;5.432;2022-11-14T02:14:58;101288.25;;;3.95;82.93
74075;BME280;62428;51.412;5.432;2022-11-14T02:17:24;101287.69;;;3.93;82.92
74075;BME280;62428;51.412;5.432;2022-11-14T02:20:17;101279.38;;;3.89;82.97
74075;BME280;62428;51.412;5.432;2022-11-14T02:22:40;101275.53;;;3.85;82.82
74075;BME280;62428;51.412;5.432;2022-11-14T02:25:07;101270.72;;;3.82;82.28
74075;BME280;62428;51.412;5.432;2022-11-14T02:27:34;101265.06;;;3.78;82.33
74075;BME280;62428;51.412;5.432;2022-11-14T02:30:12;101261.84;;;3.76;82.70
74075;BME280;62428;51.412;5.432;2022-11-14T02:32:38;101253.31;;;3.74;82.55
74075;BME280;62428;51.412;5.432;2022-11-14T02:35:03;101255.34;;;3.72;83.02
74075;BME280;62428;51.412;5.432;2022-11-14T02:37:29;101252.97;;;3.71;82.87
74075;BME280;62428;51.412;5.432;2022-11-14T02:39:54;101260.34;;;3.69;82.46
74075;BME280;62428;51.412;5.432;2022-11-14T02:42:19;101253.09;;;3.64;82.28
74075;BME280;62428;51.412;5.432;2022-11-14T02:44:45;101253.22;;;3.57;82.24
74075;BME280;62428;51.412;5.432;2022-11-14T02:47:10;101258.66;;;3.51;82.37
74075;BME280;62428;51.412;5.432;2022-11-14T02:49:35;101255.91;;;3.45;82.53
74075;BME280;62428;51.412;5.432;2022-11-14T02:52:01;101247.94;;;3.45;82.68
74075;BME280;62428;51.412;5.432;2022-11-14T02:54:26;101247.13;;;3.45;82.80
74075;BME280;62428;51.412;5.432;2022-11-14T02:56:51;101246.31;;;3.44;83.29
74075;BME280;62428;51.412;5.432;2022-11-14T02:59:17;101239.97;;;3.45;82.63
74075;BME280;62428;51.412;5.432;2022-11-14T03:01:42;101234.66;;;3.45;82.84
74075;BME280;62428;51.412;5.432;2022-11-14T03:04:07;101235.09;;;3.42;82.75
74075;BME280;62428;51.412;5.432;2022-11-14T03:06:33;101228.19;;;3.41;82.45
74075;BME280;62428;51.412;5.432;2022-11-14T03:08:58;101234.53;;;3.40;82.38
74075;BME280;62428;51.412;5.432;2022-11-14T03:11:24;101229.44;;;3.39;82.44
74075;BME280;62428;51.412;5.432;2022-11-14T03:13:49;101223.78;;;3.35;82.47
74075;BME280;62428;51.412;5.432;2022-11-14T03:16:14;101218.72;;;3.34;83.18
74075;BME280;62428;51.412;5.432;2022-11-14T03:18:40;101221.59;;;3.32;83.01
74075;BME280;62428;51.412;5.432;2022-11-14T03:21:14;101220.78;;;3.32;83.07
74075;BME280;62428;51.412;5.432;2022-11-14T03:23:40;101226.59;;;3.29;82.61
74075;BME280;62428;51.412;5.432;2022-11-14T03:26:08;101223.00;;;3.23;82.52
74075;BME280;62428;51.412;5.432;2022-11-14T03:28:34;101223.13;;;3.16;82.73
74075;BME280;62428;51.412;5.432;2022-11-14T03:31:00;101224.97;;;3.16;83.27
74075;BME280;62428;51.412;5.432;2022-11-14T03:33:25;101224.97;;;3.16;83.03
74075;BME280;62428;51.412;5.432;2022-11-14T03:35:51;101223.59;;;3.13;83.42
74075;BME280;62428;51.412;5.432;2022-11-14T03:38:18;101223.03;;;3.11;83.41
74075;BME280;62428;51.412;5.432;2022-11-14T03:40:43;101217.94;;;3.10;83.25
74075;BME280;62428;51.412;5.432;2022-11-14T03:43:09;101213.69;;;3.08;83.11
74075;BME280;62428;51.412;5.432;2022-11-14T03:45:37;101205.13;;;3.06;83.27
74075;BME280;62428;51.412;5.432;2022-11-14T03:48:04;101216.78;;;3.05;82.65
74075;BME280;62428;51.412;5.432;2022-11-14T03:50:29;101213.56;;;3.03;83.07
74075;BME280;62428;51.412;5.432;2022-11-14T03:52:55;101214.25;;;2.99;82.79
74075;BME280;62428;51.412;5.432;2022-11-14T03:55:20;101212.88;;;2.96;83.02
74075;BME280;62428;51.412;5.432;2022-11-14T03:57:45;101212.31;;;2.94;83.02
74075;BME280;62428;51.412;5.432;2022-11-14T04:00:11;101216.44;;;2.90;82.95
74075;BME280;62428;51.412;5.432;2022-11-14T04:02:36;101209.53;;;2.89;83.27
74075;BME280;62428;51.412;5.432;2022-11-14T04:05:02;101201.78;;;2.87;83.51
74075;BME280;62428;51.412;5.432;2022-11-14T04:07:27;101203.63;;;2.87;83.17
74075;BME280;62428;51.412;5.432;2022-11-14T04:09:52;101200.41;;;2.85;82.96
74075;BME280;62428;51.412;5.432;2022-11-14T04:12:18;101198.22;;;2.82;83.06
74075;BME280;62428;51.412;5.432;2022-11-14T04:14:43;101190.47;;;2.80;83.17
74075;BME280;62428;51.412;5.432;2022-11-14T04:17:09;101187.03;;;2.80;82.86
74075;BME280;62428;51.412;5.432;2022-11-14T04:19:34;101183.22;;;2.76;82.93
74075;BME280;62428;51.412;5.432;2022-11-14T04:22:00;101176.28;;;2.75;83.46
74075;BME280;62428;51.412;5.432;2022-11-14T04:24:25;101178.38;;;2.73;83.44
74075;BME280;62428;51.412;5.432;2022-11-14T04:26:51;101181.25;;;2.71;83.22
74075;BME280;62428;51.412;5.432;2022-11-14T04:29:16;101174.31;;;2.70;83.16
74075;BME280;62428;51.412;5.432;2022-11-14T04:31:41;101180.91;;;2.67;83.04
74075;BME280;62428;51.412;5.432;2022-11-14T04:34:06;101174.44;;;2.63;82.89
74075;BME280;62428;51.412;5.432;2022-11-14T04:36:32;101175.69;;;2.61;82.90
74075;BME280;62428;51.412;5.432;2022-11-14T04:38:57;101180.19;;;2.60;82.74
74075;BME280;62428;51.412;5.432;2022-11-14T04:41:22;101172.69;;;2.57;82.77
74075;BME280;62428;51.412;5.432;2022-11-14T04:43:48;101172.34;;;2.54;82.82
74075;BME280;62428;51.412;5.432;2022-11-14T04:46:13;101175.47;;;2.50;82.98
74075;BME280;62428;51.412;5.432;2022-11-14T04:48:38;101172.00;;;2.50;83.12
74075;BME280;62428;51.412;5.432;2022-11-14T04:51:04;101167.38;;;2.45;83.30
74075;BME280;62428;51.412;5.432;2022-11-14T04:53:29;101168.91;;;2.41;82.94
74075;BME280;62428;51.412;5.432;2022-11-14T04:55:54;101167.50;;;2.39;83.93
74075;BME280;62428;51.412;5.432;2022-11-14T04:58:20;101168.06;;;2.41;83.67
74075;BME280;62428;51.412;5.432;2022-11-14T05:00:45;101172.13;;;2.43;83.94
74075;BME280;62428;51.412;5.432;2022-11-14T05:03:10;101163.09;;;2.44;83.29
74075;BME280;62428;51.412;5.432;2022-11-14T05:05:36;101162.53;;;2.42;83.17
74075;BME280;62428;51.412;5.432;2022-11-14T05:08:01;101160.09;;;2.41;83.58
74075;BME280;62428;51.412;5.432;2022-11-14T05:10:26;101147.91;;;2.40;83.37
74075;BME280;62428;51.412;5.432;2022-11-14T05:12:52;101145.47;;;2.38;83.45
74075;BME280;62428;51.412;5.432;2022-11-14T05:15:18;101144.91;;;2.36;83.35
74075;BME280;62428;51.412;5.432;2022-11-14T05:17:44;101145.13;;;2.35;83.44
74075;BME280;62428;51.412;5.432;2022-11-14T05:20:09;101145.13;;;2.35;83.48
74075;BME280;62428;51.412;5.432;2022-11-14T05:22:35;101135.31;;;2.35;83.49
74075;BME280;62428;51.412;5.432;2022-11-14T05:25:00;101132.66;;;2.35;83.54
74075;BME280;62428;51.412;5.432;2022-11-14T05:27:25;101129.66;;;2.31;83.09
74075;BME280;62428;51.412;5.432;2022-11-14T05:29:50;101130.34;;;2.27;83.20
74075;BME280;62428;51.412;5.432;2022-11-14T05:32:16;101131.59;;;2.24;83.18
74075;BME280;62428;51.412;5.432;2022-11-14T05:34:41;101131.03;;;2.22;83.37
74075;BME280;62428;51.412;5.432;2022-11-14T05:37:06;101128.38;;;2.22;84.40
74075;BME280;62428;51.412;5.432;2022-11-14T05:39:32;101128.94;;;2.24;85.61
74075;BME280;62428;51.412;5.432;2022-11-14T05:41:58;101132.56;;;2.30;85.13
74075;BME280;62428;51.412;5.432;2022-11-14T05:44:23;101126.78;;;2.33;84.65
74075;BME280;62428;51.412;5.432;2022-11-14T05:46:48;101126.56;;;2.35;84.42
74075;BME280;62428;51.412;5.432;2022-11-14T05:49:14;101124.94;;;2.34;83.71
74075;BME280;62428;51.412;5.432;2022-11-14T05:51:39;101123.34;;;2.33;83.97
74075;BME280;62428;51.412;5.432;2022-11-14T05:54:04;101120.34;;;2.29;84.10
74075;BME280;62428;51.412;5.432;2022-11-14T05:56:30;101119.53;;;2.28;84.34
74075;BME280;62428;51.412;5.432;2022-11-14T05:58:55;101118.13;;;2.26;84.20
74075;BME280;62428;51.412;5.432;2022-11-14T06:01:20;101117.09;;;2.27;84.38
74075;BME280;62428;51.412;5.432;2022-11-14T06:03:47;101121.34;;;2.28;84.56
74075;BME280;62428;51.412;5.432;2022-11-14T06:06:15;101125.41;;;2.30;84.63
74075;BME280;62428;51.412;5.432;2022-11-14T06:08:41;101127.00;;;2.31;84.79
74075;BME280;62428;51.412;5.432;2022-11-14T06:11:12;101123.56;;;2.31;85.00
74075;BME280;62428;51.412;5.432;2022-11-14T06:13:38;101125.19;;;2.32;85.25
74075;BME280;62428;51.412;5.432;2022-11-14T06:16:06;101126.78;;;2.33;85.35
74075;BME280;62428;51.412;5.432;2022-11-14T06:18:32;101125.75;;;2.34;85.09
74075;BME280;62428;51.412;5.432;2022-11-14T06:21:22;101114.94;;;2.36;84.57
74075;BME280;62428;51.412;5.432;2022-11-14T06:23:48;101121.47;;;2.33;84.56
74075;BME280;62428;51.412;5.432;2022-11-14T06:26:30;101122.53;;;2.32;84.70
74075;BME280;62428;51.412;5.432;2022-11-14T06:28:56;101128.06;;;2.30;84.59
74075;BME280;62428;51.412;5.432;2022-11-14T06:31:23;101121.13;;;2.29;84.80
74075;BME280;62428;51.412;5.432;2022-11-14T06:33:49;101117.91;;;2.27;84.42
74075;BME280;62428;51.412;5.432;2022-11-14T06:36:14;101122.63;;;2.25;84.28
74075;BME280;62428;51.412;5.432;2022-11-14T06:38:41;101126.31;;;2.24;84.74
74075;BME280;62428;51.412;5.432;2022-11-14T06:41:15;101122.28;;;2.22;83.99
74075;BME280;62428;51.412;5.432;2022-11-14T06:43:42;101132.31;;;2.20;84.20
74075;BME280;62428;51.412;5.432;2022-11-14T06:46:10;101133.56;;;2.17;83.82
74075;BME280;62428;51.412;5.432;2022-11-14T06:48:36;101132.97;;;2.15;83.91
74075;BME280;62428;51.412;5.432;2022-11-14T06:51:03;101136.91;;;2.13;83.68
74075;BME280;62428;51.412;5.432;2022-11-14T06:53:31;101136.31;;;2.10;83.80
74075;BME280;62428;51.412;5.432;2022-11-14T06:56:02;101140.84;;;2.10;83.95
74075;BME280;62428;51.412;5.432;2022-11-14T06:58:29;101135.19;;;2.06;83.91
74075;BME280;62428;51.412;5.432;2022-11-14T07:00:54;101137.81;;;2.06;84.28
74075;BME280;62428;51.412;5.432;2022-11-14T07:03:21;101142.50;;;2.04;83.66
74075;BME280;62428;51.412;5.432;2022-11-14T07:05:46;101136.63;;;2.02;83.87
74075;BME280;62428;51.412;5.432;2022-11-14T07:08:12;101141.13;;;2.02;84.45
74075;BME280;62428;51.412;5.432;2022-11-14T07:10:37;101143.78;;;2.02;84.57
74075;BME280;62428;51.412;5.432;2022-11-14T07:13:03;101138.94;;;1.99;85.03
74075;BME280;62428;51.412;5.432;2022-11-14T07:15:28;101144.22;;;1.99;84.84
74075;BME280;62428;51.412;5.432;2022-11-14T07:17:54;101142.41;;;1.99;84.67
74075;BME280;62428;51.412;5.432;2022-11-14T07:20:19;101138.94;;;1.99;84.87
74075;BME280;62428;51.412;5.432;2022-11-14T07:22:45;101142.41;;;1.99;84.54
74075;BME280;62428;51.412;5.432;2022-11-14T07:25:11;101145.88;;;2.00;84.70
74075;BME280;62428;51.412;5.432;2022-11-14T07:27:36;101143.22;;;2.00;84.61
74075;BME280;62428;51.412;5.432;2022-11-14T07:30:02;101147.47;;;2.01;84.85
74075;BME280;62428;51.412;5.432;2022-11-14T07:32:27;101144.59;;;2.02;84.90
74075;BME280;62428;51.412;5.432;2022-11-14T07:34:52;101135.03;;;2.01;85.15
74075;BME280;62428;51.412;5.432;2022-11-14T07:37:18;101136.63;;;2.02;85.12
74075;BME280;62428;51.412;5.432;2022-11-14T07:39:43;101135.63;;;2.03;85.40
74075;BME280;62428;51.412;5.432;2022-11-14T07:42:10;101134.34;;;2.06;85.37
74075;BME280;62428;51.412;5.432;2022-11-14T07:44:35;101125.38;;;2.07;86.14
74075;BME280;62428;51.412;5.432;2022-11-14T07:47:00;101127.31;;;2.11;86.18
74075;BME280;62428;51.412;5.432;2022-11-14T07:49:26;101126.66;;;2.16;86.00
74075;BME280;62428;51.412;5.432;2022-11-14T07:51:51;101124.13;;;2.21;86.16
74075;BME280;62428;51.412;5.432;2022-11-14T07:54:16;101126.06;;;2.26;86.19
74075;BME280;62428;51.412;5.432;2022-11-14T07:56:42;101125.97;;;2.33;86.43
74075;BME280;62428;51.412;5.432;2022-11-14T07:59:07;101129.56;;;2.38;86.41
74075;BME280;62428;51.412;5.432;2022-11-14T08:01:32;101134.75;;;2.45;87.00
74075;BME280;62428;51.412;5.432;2022-11-14T08:03:58;101128.75;;;2.49;87.21
74075;BME280;62428;51.412;5.432;2022-11-14T08:06:23;101116.97;;;2.57;87.59
74075;BME280;62428;51.412;5.432;2022-11-14T08:08:48;101104.06;;;2.61;87.22
74075;BME280;62428;51.412;5.432;2022-11-14T08:11:13;101102.31;;;2.66;87.17
74075;BME280;62428;51.412;5.432;2022-11-14T08:13:39;101100.63;;;2.72;87.35
74075;BME280;62428;51.412;5.432;2022-11-14T08:16:08;101095.41;;;2.77;87.47
74075;BME280;62428;51.412;5.432;2022-11-14T08:18:34;101100.03;;;2.82;87.37
74075;BME280;62428;51.412;5.432;2022-11-14T08:21:03;101099.06;;;2.88;87.48
74075;BME280;62428;51.412;5.432;2022-11-14T08:23:28;101099.19;;;2.93;87.53
74075;BME280;62428;51.412;5.432;2022-11-14T08:25:53;101108.28;;;2.97;87.34
74075;BME280;62428;51.412;5.432;2022-11-14T08:28:19;101097.78;;;3.02;87.44
74075;BME280;62428;51.412;5.432;2022-11-14T08:30:44;101100.78;;;3.06;87.31
74075;BME280;62428;51.412;5.432;2022-11-14T08:33:09;101090.50;;;3.10;87.30
74075;BME280;62428;51.412;5.432;2022-11-14T08:35:35;101093.50;;;3.13;87.59
74075;BME280;62428;51.412;5.432;2022-11-14T08:38:01;101084.00;;;3.17;87.37
74075;BME280;62428;51.412;5.432;2022-11-14T08:40:27;101094.50;;;3.24;87.54
74075;BME280;62428;51.412;5.432;2022-11-14T08:42:58;101086.13;;;3.32;87.57
74075;BME280;62428;51.412;5.432;2022-11-14T08:45:24;101084.75;;;3.41;87.20
74075;BME280;62428;51.412;5.432;2022-11-14T08:47:50;101091.03;;;3.52;87.34
74075;BME280;62428;51.412;5.432;2022-11-14T08:50:16;101091.78;;;3.64;87.84
74075;BME280;62428;51.412;5.432;2022-11-14T08:52:41;101086.91;;;3.73;87.28
74075;BME280;62428;51.412;5.432;2022-11-14T08:55:07;101086.81;;;3.85;86.91
74075;BME280;62428;51.412;5.432;2022-11-14T08:57:32;101094.19;;;3.95;86.34
74075;BME280;62428;51.412;5.432;2022-11-14T08:59:57;101085.00;;;4.02;86.27
74075;BME280;62428;51.412;5.432;2022-11-14T09:02:23;101086.44;;;4.10;86.37
74075;BME280;62428;51.412;5.432;2022-11-14T09:04:48;101088.47;;;4.20;86.59
74075;BME280;62428;51.412;5.432;2022-11-14T09:07:13;101084.34;;;4.29;85.89
74075;BME280;62428;51.412;5.432;2022-11-14T09:09:39;101078.13;;;4.40;86.07
74075;BME280;62428;51.412;5.432;2022-11-14T09:12:04;101078.00;;;4.52;85.73
74075;BME280;62428;51.412;5.432;2022-11-14T09:14:31;101069.69;;;4.66;85.15
74075;BME280;62428;51.412;5.432;2022-11-14T09:16:56;101069.31;;;4.79;84.91
74075;BME280;62428;51.412;5.432;2022-11-14T09:19:21;101063.63;;;4.92;84.42
74075;BME280;62428;51.412;5.432;2022-11-14T09:21:46;101065.34;;;5.04;84.13
74075;BME280;62428;51.412;5.432;2022-11-14T09:24:12;101057.00;;;5.17;84.00
74075;BME280;62428;51.412;5.432;2022-11-14T09:26:37;101058.75;;;5.33;84.09
74075;BME280;62428;51.412;5.432;2022-11-14T09:29:02;101057.31;;;5.48;83.62
74075;BME280;62428;51.412;5.432;2022-11-14T09:31:30;101058.22;;;5.58;83.35
74075;BME280;62428;51.412;5.432;2022-11-14T09:33:55;101057.50;;;5.68;83.62
74075;BME280;62428;51.412;5.432;2022-11-14T09:36:21;101051.13;;;5.74;83.18
74075;BME280;62428;51.412;5.432;2022-11-14T09:38:47;101053.59;;;5.81;82.88
74075;BME280;62428;51.412;5.432;2022-11-14T09:41:24;101044.56;;;5.87;82.80
74075;BME280;62428;51.412;5.432;2022-11-14T09:46:43;101054.81;;;5.95;82.75
74075;BME280;62428;51.412;5.432;2022-11-14T09:49:19;101058.88;;;6.03;82.68
74075;BME280;62428;51.412;5.432;2022-11-14T09:51:51;101051.16;;;6.07;82.63
74075;BME280;62428;51.412;5.432;2022-11-14T09:54:22;101055.97;;;6.05;82.70
74075;BME280;62428;51.412;5.432;2022-11-14T09:56:48;101055.47;;;6.08;83.11
74075;BME280;62428;51.412;5.432;2022-11-14T09:59:14;101057.03;;;6.09;82.88
74075;BME280;62428;51.412;5.432;2022-11-14T10:04:42;101058.69;;;6.15;83.06
74075;BME280;62428;51.412;5.432;2022-11-14T10:07:40;101053.63;;;6.19;83.05
74075;BME280;62428;51.412;5.432;2022-11-14T10:15:37;101051.84;;;6.29;83.12
74075;BME280;62428;51.412;5.432;2022-11-14T10:20:53;101047.63;;;6.33;83.56
74075;BME280;62428;51.412;5.432;2022-11-14T10:23:30;101036.66;;;6.35;82.83
74075;BME280;62428;51.412;5.432;2022-11-14T10:26:21;101038.81;;;6.38;82.86
74075;BME280;62428;51.412;5.432;2022-11-14T10:31:45;101039.38;;;6.40;83.28
74075;BME280;62428;51.412;5.432;2022-11-14T10:34:43;101042.03;;;6.40;82.96
74075;BME280;62428;51.412;5.432;2022-11-14T10:37:32;101037.78;;;6.44;83.18
74075;BME280;62428;51.412;5.432;2022-11-14T10:42:43;101030.91;;;6.53;83.11
74075;BME280;62428;51.412;5.432;2022-11-14T10:45:19;101040.00;;;6.58;82.90
74075;BME280;62428;51.412;5.432;2022-11-14T10:47:55;101037.38;;;6.63;82.68
74075;BME280;62428;51.412;5.432;2022-11-14T10:50:26;101032.56;;;6.65;82.67
74075;BME280;62428;51.412;5.432;2022-11-14T10:52:57;101021.63;;;6.66;82.49
74075;BME280;62428;51.412;5.432;2022-11-14T10:55:25;101018.41;;;6.69;82.67
74075;BME280;62428;51.412;5.432;2022-11-14T10:57:51;101024.59;;;6.70;82.57
74075;BME280;62428;51.412;5.432;2022-11-14T11:00:20;101028.59;;;6.72;82.82
74075;BME280;62428;51.412;5.432;2022-11-14T11:02:54;101020.84;;;6.76;83.22
74075;BME280;62428;51.412;5.432;2022-11-14T11:05:24;101013.13;;;6.80;81.90
74075;BME280;62428;51.412;5.432;2022-11-14T11:07:50;101016.63;;;6.85;82.51
74075;BME280;62428;51.412;5.432;2022-11-14T11:10:40;101005.97;;;6.90;81.68
74075;BME280;62428;51.412;5.432;2022-11-14T11:13:34;101007.03;;;6.95;81.63
74075;BME280;62428;51.412;5.432;2022-11-14T11:16:01;100994.22;;;6.97;81.59
74075;BME280;62428;51.412;5.432;2022-11-14T11:18:30;100993.16;;;6.98;81.71
74075;BME280;62428;51.412;5.432;2022-11-14T11:21:10;100988.88;;;7.02;81.75
74075;BME280;62428;51.412;5.432;2022-11-14T11:23:50;100980.34;;;7.05;81.92
74075;BME280;62428;51.412;5.432;2022-11-14T11:26:19;100979.81;;;7.08;81.75
74075;BME280;62428;51.412;5.432;2022-11-14T11:29:21;100979.56;;;7.15;81.43
74075;BME280;62428;51.412;5.432;2022-11-14T11:31:58;100971.28;;;7.21;81.07
74075;BME280;62428;51.412;5.432;2022-11-14T11:34:26;100974.50;;;7.23;80.64
74075;BME280;62428;51.412;5.432;2022-11-14T11:36:59;100967.81;;;7.26;80.67
74075;BME280;62428;51.412;5.432;2022-11-14T11:39:34;100971.84;;;7.28;81.01
74075;BME280;62428;51.412;5.432;2022-11-14T11:42:06;100970.50;;;7.31;80.75
74075;BME280;62428;51.412;5.432;2022-11-14T11:44:39;100984.13;;;7.35;80.95
74075;BME280;62428;51.412;5.432;2022-11-14T11:47:11;100971.03;;;7.38;81.81
74075;BME280;62428;51.412;5.432;2022-11-14T11:52:23;100978.25;;;7.48;81.48
74075;BME280;62428;51.412;5.432;2022-11-14T11:57:33;100982.25;;;7.61;80.03
74075;BME280;62428;51.412;5.432;2022-11-14T12:00:20;100986.03;;;7.65;80.07
74075;BME280;62428;51.412;5.432;2022-11-14T12:02:50;100985.72;;;7.66;79.29
74075;BME280;62428;51.412;5.432;2022-11-14T12:10:30;100992.69;;;7.67;79.65
74075;BME280;62428;51.412;5.432;2022-11-14T12:15:50;100997.22;;;7.77;78.83
74075;BME280;62428;51.412;5.432;2022-11-14T12:18:25;100984.13;;;7.81;79.07
74075;BME280;62428;51.412;5.432;2022-11-14T12:21:04;100981.72;;;7.84;78.01
74075;BME280;62428;51.412;5.432;2022-11-14T12:23:48;100983.31;;;7.85;79.01
74075;BME280;62428;51.412;5.432;2022-11-14T12:31:38;100982.25;;;7.86;75.68
74075;BME280;62428;51.412;5.432;2022-11-14T12:34:16;100984.13;;;7.86;76.24
74075;BME280;62428;51.412;5.432;2022-11-14T12:36:45;100988.94;;;7.89;76.13
74075;BME280;62428;51.412;5.432;2022-11-14T12:39:24;100987.59;;;7.92;76.35
74075;BME280;62428;51.412;5.432;2022-11-14T12:41:49;100998.81;;;7.94;75.82
74075;BME280;62428;51.412;5.432;2022-11-14T13:00:23;100947.47;;;7.86;75.69
74075;BME280;62428;51.412;5.432;2022-11-14T13:03:17;100944.00;;;7.86;75.91
74075;BME280;62428;51.412;5.432;2022-11-14T13:06:08;100930.09;;;7.84;76.42
74075;BME280;62428;51.412;5.432;2022-11-14T13:14:16;100902.03;;;7.76;75.23
74075;BME280;62428;51.412;5.432;2022-11-14T13:19:52;100903.63;;;7.77;74.58
74075;BME280;62428;51.412;5.432;2022-11-14T13:22:44;100899.63;;;7.80;74.68
74075;BME280;62428;51.412;5.432;2022-11-14T13:27:36;100885.97;;;7.81;74.40
74075;BME280;62428;51.412;5.432;2022-11-14T13:30:03;100885.16;;;7.81;74.20
74075;BME280;62428;51.412;5.432;2022-11-14T13:35:47;100881.94;;;7.84;75.33
74075;BME280;62428;51.412;5.432;2022-11-14T13:38:30;100876.59;;;7.89;75.02
74075;BME280;62428;51.412;5.432;2022-11-14T13:52:34;100845.28;;;7.89;74.48
74075;BME280;62428;51.412;5.432;2022-11-14T13:55:04;100854.88;;;7.96;74.70
74075;BME280;62428;51.412;5.432;2022-11-14T14:00:15;100872.22;;;8.08;74.10
74075;BME280;62428;51.412;5.432;2022-11-14T14:03:03;100866.59;;;8.10;75.13
74075;BME280;62428;51.412;5.432;2022-11-14T14:16:21;100858.34;;;8.01;74.57
74075;BME280;62428;51.412;5.432;2022-11-14T14:21:29;100864.78;;;7.90;75.07
74075;BME280;62428;51.412;5.432;2022-11-14T14:24:05;100862.41;;;7.88;75.47
74075;BME280;62428;51.412;5.432;2022-11-14T14:29:28;100857.81;;;7.99;75.43
74075;BME280;62428;51.412;5.432;2022-11-14T14:32:25;100854.50;;;8.23;74.89
74075;BME280;62428;51.412;5.432;2022-11-14T14:34:51;100832.19;;;8.43;73.79
74075;BME280;62428;51.412;5.432;2022-11-14T14:37:26;100823.31;;;8.53;73.64
74075;BME280;62428;51.412;5.432;2022-11-14T14:40:04;100838.50;;;8.68;73.39
74075;BME280;62428;51.412;5.432;2022-11-14T14:42:40;100832.84;;;8.69;73.52
74075;BME280;62428;51.412;5.432;2022-11-14T14:45:20;100844.63;;;8.68;74.73
74075;BME280;62428;51.412;5.432;2022-11-14T14:47:48;100853.78;;;8.62;73.87